sensor_id;sensor_type;location;lat;lon;timestamp;pressure;altitude;pressure_sealevel;temperature;humidity
75598;BME280;64179;51.090;-1.786;2023-01-26T16:24:46;102257.31;;;22.95;35.73
75598;BME280;64179;51.090;-1.786;2023-01-26T16:27:12;102263.38;;;22.95;35.33
75598;BME280;64179;51.090;-1.786;2023-01-26T16:29:37;102268.59;;;22.95;35.36
75598;BME280;64179;51.090;-1.786;2023-01-26T16:32:21;102276.38;;;22.97;36.50
75598;BME280;64179;51.090;-1.786;2023-01-26T16:34:50;102277.63;;;23.04;34.85
75598;BME280;64179;51.090;-1.786;2023-01-26T16:37:15;102274.06;;;23.05;35.09
75598;BME280;64179;51.090;-1.786;2023-01-26T16:39:41;102269.78;;;23.04;34.78
75598;BME280;64179;51.090;-1.786;2023-01-26T16:42:09;102279.09;;;23.08;34.68
75598;BME280;64179;51.090;-1.786;2023-01-26T16:44:40;102269.88;;;23.15;34.33
75598;BME280;64179;51.090;-1.786;2023-01-26T16:47:07;102273.00;;;23.20;34.29
75598;BME280;64179;51.090;-1.786;2023-01-26T16:49:33;102272.59;;;23.26;34.17
75598;BME280;64179;51.090;-1.786;2023-01-26T16:52:01;102277.28;;;23.34;33.93
75598;BME280;64179;51.090;-1.786;2023-01-26T16:54:29;102276.97;;;23.38;33.90
75598;BME280;64179;51.090;-1.786;2023-01-26T16:56:54;102285.31;;;23.43;33.68
75598;BME280;64179;51.090;-1.786;2023-01-26T16:59:23;102283.44;;;23.45;33.71
75598;BME280;64179;51.090;-1.786;2023-01-26T17:01:49;102275.59;;;23.45;33.71
75598;BME280;64179;51.090;-1.786;2023-01-26T17:04:14;102278.03;;;23.48;33.67
75598;BME280;64179;51.090;-1.786;2023-01-26T17:06:40;102288.28;;;23.51;33.57
75598;BME280;64179;51.090;-1.786;2023-01-26T17:09:05;102293.31;;;23.54;33.49
75598;BME280;64179;51.090;-1.786;2023-01-26T17:11:31;102291.22;;;23.59;33.34
75598;BME280;64179;51.090;-1.786;2023-01-26T17:13:59;102301.47;;;23.62;33.46
75598;BME280;64179;51.090;-1.786;2023-01-26T17:16:26;102303.16;;;23.63;33.28
75598;BME280;64179;51.090;-1.786;2023-01-26T17:18:58;102301.25;;;23.65;33.39
75598;BME280;64179;51.090;-1.786;2023-01-26T17:21:24;102304.84;;;23.64;33.05
75598;BME280;64179;51.090;-1.786;2023-01-26T17:23:52;102299.78;;;23.61;33.38
75598;BME280;64179;51.090;-1.786;2023-01-26T17:26:22;102296.47;;;23.59;33.38
75598;BME280;64179;51.090;-1.786;2023-01-26T17:28:49;102302.75;;;23.57;33.34
75598;BME280;64179;51.090;-1.786;2023-01-26T17:31:18;102303.78;;;23.54;33.59
75598;BME280;64179;51.090;-1.786;2023-01-26T17:33:46;102299.72;;;23.50;33.48
75598;BME280;64179;51.090;-1.786;2023-01-26T17:36:13;102299.94;;;23.47;33.63
75598;BME280;64179;51.090;-1.786;2023-01-26T17:38:39;102311.41;;;23.45;33.63
75598;BME280;64179;51.090;-1.786;2023-01-26T17:41:04;102304.41;;;23.45;33.52
75598;BME280;64179;51.090;-1.786;2023-01-26T17:43:32;102311.75;;;23.40;33.90
75598;BME280;64179;51.090;-1.786;2023-01-26T17:48:35;102320.56;;;23.26;34.17
75598;BME280;64179;51.090;-1.786;2023-01-26T17:51:05;102323.47;;;23.22;34.15
75598;BME280;64179;51.090;-1.786;2023-01-26T17:53:31;102317.00;;;23.15;34.18
75598;BME280;64179;51.090;-1.786;2023-01-26T17:55:57;102324.97;;;23.13;34.19
75598;BME280;64179;51.090;-1.786;2023-01-26T17:58:22;102324.34;;;23.10;34.27
75598;BME280;64179;51.090;-1.786;2023-01-26T18:00:50;102327.91;;;23.09;34.27
75598;BME280;64179;51.090;-1.786;2023-01-26T18:03:16;102320.22;;;23.06;34.12
75598;BME280;64179;51.090;-1.786;2023-01-26T18:05:49;102328.09;;;23.06;34.34
75598;BME280;64179;51.090;-1.786;2023-01-26T18:08:16;102327.91;;;23.09;34.18
75598;BME280;64179;51.090;-1.786;2023-01-26T18:10:41;102320.13;;;23.07;34.25
75598;BME280;64179;51.090;-1.786;2023-01-26T18:13:07;102329.75;;;23.07;34.27
75598;BME280;64179;51.090;-1.786;2023-01-26T18:15:37;102329.75;;;23.07;34.24
75598;BME280;64179;51.090;-1.786;2023-01-26T18:18:03;102339.41;;;23.06;34.31
75598;BME280;64179;51.090;-1.786;2023-01-26T18:20:31;102332.38;;;23.07;33.87
75598;BME280;64179;51.090;-1.786;2023-01-26T18:22:59;102336.59;;;23.09;34.16
75598;BME280;64179;51.090;-1.786;2023-01-26T18:25:25;102334.38;;;23.16;34.03
75598;BME280;64179;51.090;-1.786;2023-01-26T18:27:53;102336.38;;;23.25;33.94
75598;BME280;64179;51.090;-1.786;2023-01-26T18:30:21;102328.09;;;23.31;33.85
75598;BME280;64179;51.090;-1.786;2023-01-26T18:32:46;102337.94;;;23.40;33.81
75598;BME280;64179;51.090;-1.786;2023-01-26T18:35:14;102334.00;;;23.47;33.74
75598;BME280;64179;51.090;-1.786;2023-01-26T18:37:39;102329.28;;;23.52;33.77
75598;BME280;64179;51.090;-1.786;2023-01-26T18:40:05;102336.06;;;23.55;33.65
75598;BME280;64179;51.090;-1.786;2023-01-26T18:42:32;102336.06;;;23.55;33.65
75598;BME280;64179;51.090;-1.786;2023-01-26T18:44:58;102347.28;;;23.57;33.56
75598;BME280;64179;51.090;-1.786;2023-01-26T18:47:27;102350.13;;;23.54;34.06
75598;BME280;64179;51.090;-1.786;2023-01-26T18:49:53;102352.44;;;23.58;33.56
75598;BME280;64179;51.090;-1.786;2023-01-26T18:52:21;102354.09;;;23.59;33.51
75598;BME280;64179;51.090;-1.786;2023-01-26T18:54:49;102362.06;;;23.58;33.51
75598;BME280;64179;51.090;-1.786;2023-01-26T18:57:16;102368.34;;;23.55;33.48
75598;BME280;64179;51.090;-1.786;2023-01-26T18:59:43;102367.72;;;23.52;33.61
75598;BME280;64179;51.090;-1.786;2023-01-26T19:02:11;102366.97;;;23.50;33.50
75598;BME280;64179;51.090;-1.786;2023-01-26T19:04:38;102370.75;;;23.46;33.77
75598;BME280;64179;51.090;-1.786;2023-01-26T19:07:07;102369.16;;;23.43;33.86
75598;BME280;64179;51.090;-1.786;2023-01-26T19:09:36;102361.50;;;23.40;33.97
75598;BME280;64179;51.090;-1.786;2023-01-26T19:12:03;102365.81;;;23.41;33.72
75598;BME280;64179;51.090;-1.786;2023-01-26T19:14:32;102370.22;;;23.41;33.81
75598;BME280;64179;51.090;-1.786;2023-01-26T19:16:58;102365.81;;;23.41;33.72
75598;BME280;64179;51.090;-1.786;2023-01-26T19:19:24;102364.13;;;23.40;33.90
75598;BME280;64179;51.090;-1.786;2023-01-26T19:21:52;102359.84;;;23.39;33.94
75598;BME280;64179;51.090;-1.786;2023-01-26T19:24:20;102360.75;;;23.38;33.86
75598;BME280;64179;51.090;-1.786;2023-01-26T19:26:45;102354.69;;;23.38;33.71
75598;BME280;64179;51.090;-1.786;2023-01-26T19:29:11;102360.56;;;23.41;33.81
75598;BME280;64179;51.090;-1.786;2023-01-26T19:31:36;102352.63;;;23.43;33.91
75598;BME280;64179;51.090;-1.786;2023-01-26T19:34:04;102345.56;;;23.43;33.73
75598;BME280;64179;51.090;-1.786;2023-01-26T19:36:34;102354.94;;;23.47;33.86
75598;BME280;64179;51.090;-1.786;2023-01-26T19:39:01;102353.03;;;23.49;33.68
75598;BME280;64179;51.090;-1.786;2023-01-26T19:41:27;102349.47;;;23.50;33.69
75598;BME280;64179;51.090;-1.786;2023-01-26T19:43:55;102353.03;;;23.49;33.62
75598;BME280;64179;51.090;-1.786;2023-01-26T19:46:20;102359.97;;;23.50;33.86
75598;BME280;64179;51.090;-1.786;2023-01-26T19:48:47;102360.81;;;23.51;33.72
75598;BME280;64179;51.090;-1.786;2023-01-26T19:51:17;102363.53;;;23.49;33.67
75598;BME280;64179;51.090;-1.786;2023-01-26T19:53:47;102367.91;;;23.49;33.85
75598;BME280;64179;51.090;-1.786;2023-01-26T19:56:29;102363.53;;;23.49;33.73
75598;BME280;64179;51.090;-1.786;2023-01-26T19:59:00;102367.28;;;23.45;33.74
75598;BME280;64179;51.090;-1.786;2023-01-26T20:01:27;102360.34;;;23.44;33.75
75598;BME280;64179;51.090;-1.786;2023-01-26T20:03:55;102366.44;;;23.45;33.74
75598;BME280;64179;51.090;-1.786;2023-01-26T20:06:25;102358.50;;;23.46;33.74
75598;BME280;64179;51.090;-1.786;2023-01-26T20:08:52;102349.47;;;23.50;33.74
75598;BME280;64179;51.090;-1.786;2023-01-26T20:11:18;102355.97;;;23.57;33.73
75598;BME280;64179;51.090;-1.786;2023-01-26T20:13:58;102355.56;;;23.63;33.35
75598;BME280;64179;51.090;-1.786;2023-01-26T20:16:25;102345.50;;;23.70;33.37
75598;BME280;64179;51.090;-1.786;2023-01-26T20:18:54;102340.63;;;23.77;33.37
75598;BME280;64179;51.090;-1.786;2023-01-26T20:21:20;102336.66;;;23.84;33.21
75598;BME280;64179;51.090;-1.786;2023-01-26T20:23:46;102339.56;;;23.92;33.13
75598;BME280;64179;51.090;-1.786;2023-01-26T20:26:12;102334.94;;;23.95;33.08
75598;BME280;64179;51.090;-1.786;2023-01-26T20:28:38;102334.59;;;24.00;33.04
75598;BME280;64179;51.090;-1.786;2023-01-26T20:31:10;102327.38;;;24.03;33.09
75598;BME280;64179;51.090;-1.786;2023-01-26T20:33:36;102324.63;;;24.05;33.00
75598;BME280;64179;51.090;-1.786;2023-01-26T20:36:08;102321.06;;;24.06;33.15
75598;BME280;64179;51.090;-1.786;2023-01-26T20:38:34;102321.78;;;24.08;32.97
75598;BME280;64179;51.090;-1.786;2023-01-26T20:41:12;102324.19;;;24.11;32.94
75598;BME280;64179;51.090;-1.786;2023-01-26T20:43:39;102316.22;;;24.13;32.93
75598;BME280;64179;51.090;-1.786;2023-01-26T20:46:10;102317.91;;;24.14;32.95
75598;BME280;64179;51.090;-1.786;2023-01-26T20:48:36;102318.75;;;24.14;32.83
75598;BME280;64179;51.090;-1.786;2023-01-26T20:51:32;102326.59;;;24.14;33.00
75598;BME280;64179;51.090;-1.786;2023-01-26T20:54:01;102323.00;;;24.15;32.84
75598;BME280;64179;51.090;-1.786;2023-01-26T20:56:27;102321.34;;;24.14;32.83
75598;BME280;64179;51.090;-1.786;2023-01-26T20:58:55;102328.91;;;24.19;32.88
75598;BME280;64179;51.090;-1.786;2023-01-26T21:01:22;102335.50;;;24.24;32.74
75598;BME280;64179;51.090;-1.786;2023-01-26T21:03:48;102342.28;;;24.27;32.89
75598;BME280;64179;51.090;-1.786;2023-01-26T21:06:15;102336.94;;;24.28;32.74
75598;BME280;64179;51.090;-1.786;2023-01-26T21:08:42;102330.88;;;24.28;32.82
75598;BME280;64179;51.090;-1.786;2023-01-26T21:11:12;102332.78;;;24.26;33.00
75598;BME280;64179;51.090;-1.786;2023-01-26T21:13:41;102325.84;;;24.25;32.88
75598;BME280;64179;51.090;-1.786;2023-01-26T21:16:11;102328.59;;;24.23;32.67
75598;BME280;64179;51.090;-1.786;2023-01-26T21:18:37;102337.38;;;24.22;32.74
75598;BME280;64179;51.090;-1.786;2023-01-26T21:21:06;102329.75;;;24.19;32.86
75598;BME280;64179;51.090;-1.786;2023-01-26T21:23:33;102337.63;;;24.19;32.87
75598;BME280;64179;51.090;-1.786;2023-01-26T21:26:09;102330.78;;;24.17;33.09
75598;BME280;64179;51.090;-1.786;2023-01-26T21:28:35;102332.56;;;24.16;32.87
75598;BME280;64179;51.090;-1.786;2023-01-26T21:31:06;102339.47;;;24.17;32.99
75598;BME280;64179;51.090;-1.786;2023-01-26T21:33:36;102342.09;;;24.17;32.95
75598;BME280;64179;51.090;-1.786;2023-01-26T21:36:02;102332.38;;;24.19;32.94
75598;BME280;64179;51.090;-1.786;2023-01-26T21:38:30;102332.56;;;24.16;33.03
75598;BME280;64179;51.090;-1.786;2023-01-26T21:41:03;102331.72;;;24.16;33.01
75598;BME280;64179;51.090;-1.786;2023-01-26T21:43:56;102336.13;;;24.15;32.91
75598;BME280;64179;51.090;-1.786;2023-01-26T21:46:21;102340.34;;;24.18;33.06
75598;BME280;64179;51.090;-1.786;2023-01-26T21:48:47;102342.63;;;24.22;32.94
75598;BME280;64179;51.090;-1.786;2023-01-26T21:51:12;102345.16;;;24.24;33.27
75598;BME280;64179;51.090;-1.786;2023-01-26T21:53:56;102347.53;;;24.27;32.86
75598;BME280;64179;51.090;-1.786;2023-01-26T21:56:24;102350.16;;;24.27;32.98
75598;BME280;64179;51.090;-1.786;2023-01-26T21:58:49;102354.56;;;24.26;32.95
75598;BME280;64179;51.090;-1.786;2023-01-26T22:01:33;102353.63;;;24.27;32.99
75598;BME280;64179;51.090;-1.786;2023-01-26T22:04:00;102368.22;;;24.31;32.64
75598;BME280;64179;51.090;-1.786;2023-01-26T22:06:29;102372.16;;;24.37;32.74
75598;BME280;64179;51.090;-1.786;2023-01-26T22:09:00;102371.09;;;24.39;32.67
75598;BME280;64179;51.090;-1.786;2023-01-26T22:11:26;102366.47;;;24.43;32.67
75598;BME280;64179;51.090;-1.786;2023-01-26T22:13:51;102370.66;;;24.45;32.72
75598;BME280;64179;51.090;-1.786;2023-01-26T22:16:18;102365.19;;;24.48;32.56
75598;BME280;64179;51.090;-1.786;2023-01-26T22:18:43;102375.69;;;24.48;32.60
75598;BME280;64179;51.090;-1.786;2023-01-26T22:21:12;102372.94;;;24.50;32.50
75598;BME280;64179;51.090;-1.786;2023-01-26T22:23:39;102365.91;;;24.50;32.66
75598;BME280;64179;51.090;-1.786;2023-01-26T22:26:12;102363.06;;;24.53;32.65
75598;BME280;64179;51.090;-1.786;2023-01-26T22:28:38;102362.84;;;24.57;32.59
75598;BME280;64179;51.090;-1.786;2023-01-26T22:31:06;102365.22;;;24.60;32.41
75598;BME280;64179;51.090;-1.786;2023-01-26T22:33:34;102369.31;;;24.64;32.36
75598;BME280;64179;51.090;-1.786;2023-01-26T22:36:09;102369.09;;;24.67;32.44
75598;BME280;64179;51.090;-1.786;2023-01-26T22:38:36;102373.38;;;24.68;32.86
75598;BME280;64179;51.090;-1.786;2023-01-26T22:41:03;102378.63;;;24.68;32.42
75598;BME280;64179;51.090;-1.786;2023-01-26T22:43:29;102371.50;;;24.70;32.48
75598;BME280;64179;51.090;-1.786;2023-01-26T22:46:07;102365.50;;;24.68;32.48
75598;BME280;64179;51.090;-1.786;2023-01-26T22:48:36;102365.06;;;24.74;32.37
75598;BME280;64179;51.090;-1.786;2023-01-26T22:51:22;102366.59;;;24.76;32.21
75598;BME280;64179;51.090;-1.786;2023-01-26T22:53:51;102369.63;;;24.83;32.68
75598;BME280;64179;51.090;-1.786;2023-01-26T22:56:18;102363.09;;;24.88;32.33
75598;BME280;64179;51.090;-1.786;2023-01-26T22:58:51;102355.59;;;24.95;32.38
75598;BME280;64179;51.090;-1.786;2023-01-26T23:01:22;102356.94;;;25.01;32.27
75598;BME280;64179;51.090;-1.786;2023-01-26T23:03:52;102360.44;;;25.12;32.05
75598;BME280;64179;51.090;-1.786;2023-01-26T23:06:22;102354.09;;;25.15;31.83
75598;BME280;64179;51.090;-1.786;2023-01-26T23:08:47;102359.72;;;25.21;31.94
75598;BME280;64179;51.090;-1.786;2023-01-26T23:11:27;102353.03;;;25.17;31.94
75598;BME280;64179;51.090;-1.786;2023-01-26T23:13:53;102354.09;;;25.15;31.80
75598;BME280;64179;51.090;-1.786;2023-01-26T23:16:20;102352.44;;;25.14;31.91
75598;BME280;64179;51.090;-1.786;2023-01-26T23:18:47;102354.22;;;25.13;31.99
75598;BME280;64179;51.090;-1.786;2023-01-26T23:21:15;102358.84;;;25.10;32.16
75598;BME280;64179;51.090;-1.786;2023-01-26T23:23:41;102352.06;;;25.07;32.15
75598;BME280;64179;51.090;-1.786;2023-01-26T23:26:09;102336.78;;;25.01;32.18
75598;BME280;64179;51.090;-1.786;2023-01-26T23:28:37;102342.25;;;24.98;32.26
75598;BME280;64179;51.090;-1.786;2023-01-26T23:31:04;102335.56;;;24.94;32.28
75598;BME280;64179;51.090;-1.786;2023-01-26T23:33:32;102339.38;;;24.90;32.33
75598;BME280;64179;51.090;-1.786;2023-01-26T23:35:58;102329.88;;;24.87;32.41
75598;BME280;64179;51.090;-1.786;2023-01-26T23:38:25;102320.47;;;24.85;32.51
75598;BME280;64179;51.090;-1.786;2023-01-26T23:40:54;102320.59;;;24.83;32.04
75598;BME280;64179;51.090;-1.786;2023-01-26T23:43:20;102306.38;;;24.75;32.14
75598;BME280;64179;51.090;-1.786;2023-01-26T23:45:47;102304.41;;;24.66;32.15
75598;BME280;64179;51.090;-1.786;2023-01-26T23:48:16;102300.47;;;24.60;32.47
75598;BME280;64179;51.090;-1.786;2023-01-26T23:50:41;102300.06;;;24.53;32.40
75598;BME280;64179;51.090;-1.786;2023-01-26T23:53:07;102283.13;;;24.46;32.57
75598;BME280;64179;51.090;-1.786;2023-01-26T23:55:33;102280.88;;;24.42;32.65
75598;BME280;64179;51.090;-1.786;2023-01-26T23:58:02;102280.47;;;24.35;32.63
